Briggs, Texas
Current Conditions -  °F | °C
As of 6:15 PM on Friday 24 Oct 2014 (Local Time) from KILE Reporting Station
Clear Clear  
Wind Chill: 81°   Ceiling: Unl
Heat Index: 81°   Visibility: 10mi
Dew Point: 61°   Wind: 8mph
Humidity: 51%   Direction: 120°ESE
Pressure: 30.08"   Gusts: NA
Location:  30.89°N, 97.93°W
Report Text: KILE 242315Z AUTO 12007KT 10SM CLR 27/16 A3008 RMK AO1
Loading
Personal Weather Stations






























Interactive Weather Map
Tropical Storm Tracking
New forecast layout! Learn more

10-Day Weather Forecast

Advertisements
Track Severe Weather on mobile